Petrolandia, Brazil
Current Conditions -  °F | °C
As of 4:00 AM on Sunday 26 Oct 2014 (Local Time) from SBFL Reporting Station
Broken Clouds Broken Clouds  
Wind Chill: 70°   Ceiling: 3500
Heat Index: 70°   Visibility: 6mi
Dew Point: 66°   Wind: 2mph
Humidity: 88%   Direction: 350°N
Pressure: 29.91"   Gusts: NA
Location:  27.54°S, 49.7°W
Report Text: SBFL 260600Z 35002KT 9999 FEW010 BKN035 21/19 Q1013
Loading
Personal Weather Stations






























Interactive Weather Map
Tropical Storm Tracking
New forecast layout! Learn more

10-Day Weather Forecast

Advertisements
Track Severe Weather on mobile